sensor_id;sensor_type;location;lat;lon;timestamp;temperature;humidity
16243;DHT22;11719;51.052;6.982;2023-07-16T00:00:12;22.90;99.90
16243;DHT22;11719;51.052;6.982;2023-07-16T00:02:38;22.90;99.90
16243;DHT22;11719;51.052;6.982;2023-07-16T00:05:04;22.90;99.90
16243;DHT22;11719;51.052;6.982;2023-07-16T00:07:31;22.90;99.90
16243;DHT22;11719;51.052;6.982;2023-07-16T00:09:57;22.90;99.90
16243;DHT22;11719;51.052;6.982;2023-07-16T00:12:25;22.80;99.90
16243;DHT22;11719;51.052;6.982;2023-07-16T00:14:51;22.80;99.90
16243;DHT22;11719;51.052;6.982;2023-07-16T00:17:17;22.80;99.90
16243;DHT22;11719;51.052;6.982;2023-07-16T00:19:42;22.80;99.90
16243;DHT22;11719;51.052;6.982;2023-07-16T00:22:08;22.80;99.90
16243;DHT22;11719;51.052;6.982;2023-07-16T00:24:34;22.80;99.90
16243;DHT22;11719;51.052;6.982;2023-07-16T00:27:00;22.70;99.90
16243;DHT22;11719;51.052;6.982;2023-07-16T00:29:25;22.70;99.90
16243;DHT22;11719;51.052;6.982;2023-07-16T00:31:51;22.70;99.90
16243;DHT22;11719;51.052;6.982;2023-07-16T00:34:17;22.70;99.90
16243;DHT22;11719;51.052;6.982;2023-07-16T00:36:43;22.70;99.90
16243;DHT22;11719;51.052;6.982;2023-07-16T00:39:09;22.70;99.90
16243;DHT22;11719;51.052;6.982;2023-07-16T00:41:35;22.70;99.90
16243;DHT22;11719;51.052;6.982;2023-07-16T00:44:01;22.60;99.90
16243;DHT22;11719;51.052;6.982;2023-07-16T00:46:27;22.70;99.90
16243;DHT22;11719;51.052;6.982;2023-07-16T00:48:52;22.60;99.90
16243;DHT22;11719;51.052;6.982;2023-07-16T00:51:19;22.60;99.90
16243;DHT22;11719;51.052;6.982;2023-07-16T00:53:47;22.70;99.90
16243;DHT22;11719;51.052;6.982;2023-07-16T00:56:16;22.60;99.90
16243;DHT22;11719;51.052;6.982;2023-07-16T00:58:43;22.60;99.90
16243;DHT22;11719;51.052;6.982;2023-07-16T01:01:09;22.60;99.90
16243;DHT22;11719;51.052;6.982;2023-07-16T01:03:35;22.60;99.90
16243;DHT22;11719;51.052;6.982;2023-07-16T01:06:10;22.60;99.90
16243;DHT22;11719;51.052;6.982;2023-07-16T01:08:42;22.60;99.90
16243;DHT22;11719;51.052;6.982;2023-07-16T01:11:12;22.50;99.90
16243;DHT22;11719;51.052;6.982;2023-07-16T01:13:38;22.50;99.90
16243;DHT22;11719;51.052;6.982;2023-07-16T01:16:05;22.50;99.90
16243;DHT22;11719;51.052;6.982;2023-07-16T01:18:30;22.50;99.90
16243;DHT22;11719;51.052;6.982;2023-07-16T01:20:56;22.50;99.90
16243;DHT22;11719;51.052;6.982;2023-07-16T01:24:17;22.50;99.90
16243;DHT22;11719;51.052;6.982;2023-07-16T01:30:04;22.50;99.90
16243;DHT22;11719;51.052;6.982;2023-07-16T01:32:31;22.50;99.90
16243;DHT22;11719;51.052;6.982;2023-07-16T01:34:58;22.50;99.90
16243;DHT22;11719;51.052;6.982;2023-07-16T01:37:25;22.50;99.90
16243;DHT22;11719;51.052;6.982;2023-07-16T01:39:50;22.50;99.90
16243;DHT22;11719;51.052;6.982;2023-07-16T01:42:16;22.50;99.90
16243;DHT22;11719;51.052;6.982;2023-07-16T01:44:42;22.40;99.90
16243;DHT22;11719;51.052;6.982;2023-07-16T01:47:12;22.50;99.90
16243;DHT22;11719;51.052;6.982;2023-07-16T01:49:40;22.40;99.90
16243;DHT22;11719;51.052;6.982;2023-07-16T01:52:08;22.40;99.90
16243;DHT22;11719;51.052;6.982;2023-07-16T01:54:35;22.50;99.90
16243;DHT22;11719;51.052;6.982;2023-07-16T01:57:01;22.50;99.90
16243;DHT22;11719;51.052;6.982;2023-07-16T01:59:27;22.50;99.90
16243;DHT22;11719;51.052;6.982;2023-07-16T02:01:53;22.40;99.90
16243;DHT22;11719;51.052;6.982;2023-07-16T02:04:20;22.50;99.90
16243;DHT22;11719;51.052;6.982;2023-07-16T02:06:46;22.40;99.90
16243;DHT22;11719;51.052;6.982;2023-07-16T02:09:13;22.50;99.90
16243;DHT22;11719;51.052;6.982;2023-07-16T02:11:39;22.40;99.90
16243;DHT22;11719;51.052;6.982;2023-07-16T02:14:05;22.40;99.90
16243;DHT22;11719;51.052;6.982;2023-07-16T02:16:30;22.40;99.90
16243;DHT22;11719;51.052;6.982;2023-07-16T02:18:56;22.40;99.90
16243;DHT22;11719;51.052;6.982;2023-07-16T02:21:22;22.40;99.90
16243;DHT22;11719;51.052;6.982;2023-07-16T02:23:48;22.40;99.90
16243;DHT22;11719;51.052;6.982;2023-07-16T02:26:13;22.40;99.90
16243;DHT22;11719;51.052;6.982;2023-07-16T02:28:39;22.30;99.90
16243;DHT22;11719;51.052;6.982;2023-07-16T02:31:05;22.30;99.90
16243;DHT22;11719;51.052;6.982;2023-07-16T02:33:31;22.40;99.90
16243;DHT22;11719;51.052;6.982;2023-07-16T02:35:56;22.30;99.90
16243;DHT22;11719;51.052;6.982;2023-07-16T02:38:22;22.30;99.90
16243;DHT22;11719;51.052;6.982;2023-07-16T02:40:48;22.30;99.90
16243;DHT22;11719;51.052;6.982;2023-07-16T02:43:14;22.30;99.90
16243;DHT22;11719;51.052;6.982;2023-07-16T02:45:40;22.30;99.90
16243;DHT22;11719;51.052;6.982;2023-07-16T02:48:07;22.20;99.90
16243;DHT22;11719;51.052;6.982;2023-07-16T02:50:37;22.30;99.90
16243;DHT22;11719;51.052;6.982;2023-07-16T02:53:06;22.30;99.90
16243;DHT22;11719;51.052;6.982;2023-07-16T02:55:34;22.30;99.90
16243;DHT22;11719;51.052;6.982;2023-07-16T02:58:00;22.30;99.90
16243;DHT22;11719;51.052;6.982;2023-07-16T03:00:33;22.30;99.90
16243;DHT22;11719;51.052;6.982;2023-07-16T03:03:00;22.30;99.90
16243;DHT22;11719;51.052;6.982;2023-07-16T03:05:26;22.30;99.90
16243;DHT22;11719;51.052;6.982;2023-07-16T03:07:53;22.30;99.90
16243;DHT22;11719;51.052;6.982;2023-07-16T03:10:19;22.20;99.90
16243;DHT22;11719;51.052;6.982;2023-07-16T03:12:46;22.20;99.90
16243;DHT22;11719;51.052;6.982;2023-07-16T03:15:12;22.20;99.90
16243;DHT22;11719;51.052;6.982;2023-07-16T03:17:37;22.20;99.90
16243;DHT22;11719;51.052;6.982;2023-07-16T03:20:03;22.20;99.90
16243;DHT22;11719;51.052;6.982;2023-07-16T03:22:31;22.20;99.90
16243;DHT22;11719;51.052;6.982;2023-07-16T03:24:57;22.20;99.90
16243;DHT22;11719;51.052;6.982;2023-07-16T03:27:23;22.20;99.90
16243;DHT22;11719;51.052;6.982;2023-07-16T03:29:48;22.20;99.90
16243;DHT22;11719;51.052;6.982;2023-07-16T03:32:14;22.20;99.90
16243;DHT22;11719;51.052;6.982;2023-07-16T03:34:40;22.10;99.90
16243;DHT22;11719;51.052;6.982;2023-07-16T03:37:06;22.10;99.90
16243;DHT22;11719;51.052;6.982;2023-07-16T03:39:31;22.10;99.90
16243;DHT22;11719;51.052;6.982;2023-07-16T03:41:57;22.10;99.90
16243;DHT22;11719;51.052;6.982;2023-07-16T03:44:23;22.10;99.90
16243;DHT22;11719;51.052;6.982;2023-07-16T03:46:49;22.10;99.90
16243;DHT22;11719;51.052;6.982;2023-07-16T03:49:14;22.00;99.90
16243;DHT22;11719;51.052;6.982;2023-07-16T03:51:41;22.10;99.90
16243;DHT22;11719;51.052;6.982;2023-07-16T03:54:06;22.00;99.90
16243;DHT22;11719;51.052;6.982;2023-07-16T03:56:32;22.10;99.90
16243;DHT22;11719;51.052;6.982;2023-07-16T03:58:58;22.00;99.90
16243;DHT22;11719;51.052;6.982;2023-07-16T04:01:24;22.00;99.90
16243;DHT22;11719;51.052;6.982;2023-07-16T04:03:49;22.10;99.90
16243;DHT22;11719;51.052;6.982;2023-07-16T04:06:15;22.10;99.90
16243;DHT22;11719;51.052;6.982;2023-07-16T04:08:41;22.10;99.90
16243;DHT22;11719;51.052;6.982;2023-07-16T04:11:07;22.10;99.90
16243;DHT22;11719;51.052;6.982;2023-07-16T04:13:34;22.10;99.90
16243;DHT22;11719;51.052;6.982;2023-07-16T04:15:59;22.00;99.90
16243;DHT22;11719;51.052;6.982;2023-07-16T04:18:25;22.00;99.90
16243;DHT22;11719;51.052;6.982;2023-07-16T04:20:51;22.00;99.90
16243;DHT22;11719;51.052;6.982;2023-07-16T04:23:17;22.00;99.90
16243;DHT22;11719;51.052;6.982;2023-07-16T04:25:43;22.10;99.90
16243;DHT22;11719;51.052;6.982;2023-07-16T04:28:10;22.10;99.90
16243;DHT22;11719;51.052;6.982;2023-07-16T04:30:37;22.10;99.90
16243;DHT22;11719;51.052;6.982;2023-07-16T04:33:04;22.10;99.90
16243;DHT22;11719;51.052;6.982;2023-07-16T04:35:30;22.10;99.90
16243;DHT22;11719;51.052;6.982;2023-07-16T04:37:56;22.20;99.90
16243;DHT22;11719;51.052;6.982;2023-07-16T04:40:22;22.10;99.90
16243;DHT22;11719;51.052;6.982;2023-07-16T04:42:48;22.10;99.90
16243;DHT22;11719;51.052;6.982;2023-07-16T04:45:14;22.10;99.90
16243;DHT22;11719;51.052;6.982;2023-07-16T04:47:39;22.00;99.90
16243;DHT22;11719;51.052;6.982;2023-07-16T04:50:06;21.90;99.90
16243;DHT22;11719;51.052;6.982;2023-07-16T04:52:32;21.90;99.90
16243;DHT22;11719;51.052;6.982;2023-07-16T04:54:57;22.00;99.90
16243;DHT22;11719;51.052;6.982;2023-07-16T04:57:23;22.00;99.90
16243;DHT22;11719;51.052;6.982;2023-07-16T04:59:49;22.00;99.90
16243;DHT22;11719;51.052;6.982;2023-07-16T05:02:15;22.00;99.90
16243;DHT22;11719;51.052;6.982;2023-07-16T05:04:42;22.00;99.90
16243;DHT22;11719;51.052;6.982;2023-07-16T05:07:13;21.90;99.90
16243;DHT22;11719;51.052;6.982;2023-07-16T05:09:40;22.00;99.90
16243;DHT22;11719;51.052;6.982;2023-07-16T05:12:06;22.00;99.90
16243;DHT22;11719;51.052;6.982;2023-07-16T05:14:43;22.00;99.90
16243;DHT22;11719;51.052;6.982;2023-07-16T05:17:11;22.00;99.90
16243;DHT22;11719;51.052;6.982;2023-07-16T05:19:37;22.00;99.90
16243;DHT22;11719;51.052;6.982;2023-07-16T05:22:03;21.90;99.90
16243;DHT22;11719;51.052;6.982;2023-07-16T05:24:31;22.00;99.90
16243;DHT22;11719;51.052;6.982;2023-07-16T05:26:57;22.00;99.90
16243;DHT22;11719;51.052;6.982;2023-07-16T05:29:23;22.00;99.90
16243;DHT22;11719;51.052;6.982;2023-07-16T05:31:49;22.00;99.90
16243;DHT22;11719;51.052;6.982;2023-07-16T05:34:15;22.10;99.90
16243;DHT22;11719;51.052;6.982;2023-07-16T05:36:42;22.00;99.90
16243;DHT22;11719;51.052;6.982;2023-07-16T05:39:10;22.00;99.90
16243;DHT22;11719;51.052;6.982;2023-07-16T05:41:39;21.90;99.90
16243;DHT22;11719;51.052;6.982;2023-07-16T05:44:05;22.00;99.90
16243;DHT22;11719;51.052;6.982;2023-07-16T05:46:31;21.90;99.90
16243;DHT22;11719;51.052;6.982;2023-07-16T05:48:58;22.00;99.90
16243;DHT22;11719;51.052;6.982;2023-07-16T05:51:24;21.90;99.90
16243;DHT22;11719;51.052;6.982;2023-07-16T05:53:50;21.90;99.90
16243;DHT22;11719;51.052;6.982;2023-07-16T05:56:16;22.00;99.90
16243;DHT22;11719;51.052;6.982;2023-07-16T05:58:41;21.90;99.90
16243;DHT22;11719;51.052;6.982;2023-07-16T06:01:08;21.90;99.90
16243;DHT22;11719;51.052;6.982;2023-07-16T06:03:34;21.90;99.90
16243;DHT22;11719;51.052;6.982;2023-07-16T06:06:00;21.90;99.90
16243;DHT22;11719;51.052;6.982;2023-07-16T06:08:26;22.00;99.90
16243;DHT22;11719;51.052;6.982;2023-07-16T06:10:52;22.00;99.90
16243;DHT22;11719;51.052;6.982;2023-07-16T06:13:18;22.00;99.90
16243;DHT22;11719;51.052;6.982;2023-07-16T06:15:43;21.90;99.90
16243;DHT22;11719;51.052;6.982;2023-07-16T06:18:09;21.90;99.90
16243;DHT22;11719;51.052;6.982;2023-07-16T06:20:35;22.00;99.90
16243;DHT22;11719;51.052;6.982;2023-07-16T06:23:01;21.90;99.90
16243;DHT22;11719;51.052;6.982;2023-07-16T06:25:27;21.90;99.90
16243;DHT22;11719;51.052;6.982;2023-07-16T06:27:52;21.90;99.90
16243;DHT22;11719;51.052;6.982;2023-07-16T06:30:18;21.90;99.90
16243;DHT22;11719;51.052;6.982;2023-07-16T06:32:44;21.90;99.90
16243;DHT22;11719;51.052;6.982;2023-07-16T06:35:10;21.90;99.90
16243;DHT22;11719;51.052;6.982;2023-07-16T06:37:35;21.90;99.90
16243;DHT22;11719;51.052;6.982;2023-07-16T06:40:01;21.90;99.90
16243;DHT22;11719;51.052;6.982;2023-07-16T06:42:29;21.90;99.90
16243;DHT22;11719;51.052;6.982;2023-07-16T06:44:54;21.90;99.90
16243;DHT22;11719;51.052;6.982;2023-07-16T06:47:20;21.90;99.90
16243;DHT22;11719;51.052;6.982;2023-07-16T06:49:46;21.90;99.90
16243;DHT22;11719;51.052;6.982;2023-07-16T06:52:19;21.90;99.90
16243;DHT22;11719;51.052;6.982;2023-07-16T06:54:50;21.90;99.90
16243;DHT22;11719;51.052;6.982;2023-07-16T06:57:15;22.00;99.90
16243;DHT22;11719;51.052;6.982;2023-07-16T06:59:41;22.00;99.90
16243;DHT22;11719;51.052;6.982;2023-07-16T07:02:07;22.00;99.90
16243;DHT22;11719;51.052;6.982;2023-07-16T07:04:32;22.00;99.90
16243;DHT22;11719;51.052;6.982;2023-07-16T07:06:58;22.10;99.90
16243;DHT22;11719;51.052;6.982;2023-07-16T07:09:24;22.10;99.90
16243;DHT22;11719;51.052;6.982;2023-07-16T07:11:50;22.20;99.90
16243;DHT22;11719;51.052;6.982;2023-07-16T07:14:15;22.10;99.90
16243;DHT22;11719;51.052;6.982;2023-07-16T07:16:41;22.10;99.90
16243;DHT22;11719;51.052;6.982;2023-07-16T07:19:08;22.10;99.90
16243;DHT22;11719;51.052;6.982;2023-07-16T07:21:34;22.10;99.90
16243;DHT22;11719;51.052;6.982;2023-07-16T07:24:00;22.20;99.90
16243;DHT22;11719;51.052;6.982;2023-07-16T07:26:26;22.20;99.90
16243;DHT22;11719;51.052;6.982;2023-07-16T07:28:51;22.20;99.90
16243;DHT22;11719;51.052;6.982;2023-07-16T07:31:17;22.20;99.90
16243;DHT22;11719;51.052;6.982;2023-07-16T07:33:43;22.20;99.90
16243;DHT22;11719;51.052;6.982;2023-07-16T07:36:09;22.20;99.90
16243;DHT22;11719;51.052;6.982;2023-07-16T07:38:34;22.20;99.90
16243;DHT22;11719;51.052;6.982;2023-07-16T07:41:00;22.20;99.90
16243;DHT22;11719;51.052;6.982;2023-07-16T07:43:26;22.20;99.90
16243;DHT22;11719;51.052;6.982;2023-07-16T07:45:52;22.20;99.90
16243;DHT22;11719;51.052;6.982;2023-07-16T07:48:18;22.20;99.90
16243;DHT22;11719;51.052;6.982;2023-07-16T07:50:46;22.30;99.90
16243;DHT22;11719;51.052;6.982;2023-07-16T07:53:12;22.30;99.90
16243;DHT22;11719;51.052;6.982;2023-07-16T07:55:40;22.30;99.90
16243;DHT22;11719;51.052;6.982;2023-07-16T07:58:07;22.30;99.90
16243;DHT22;11719;51.052;6.982;2023-07-16T08:00:33;22.30;99.90
16243;DHT22;11719;51.052;6.982;2023-07-16T08:02:59;22.40;99.90
16243;DHT22;11719;51.052;6.982;2023-07-16T08:05:25;22.40;99.90
16243;DHT22;11719;51.052;6.982;2023-07-16T08:07:50;22.40;99.90
16243;DHT22;11719;51.052;6.982;2023-07-16T08:10:17;22.40;99.90
16243;DHT22;11719;51.052;6.982;2023-07-16T08:12:43;22.50;99.90
16243;DHT22;11719;51.052;6.982;2023-07-16T08:15:10;22.50;99.90
16243;DHT22;11719;51.052;6.982;2023-07-16T08:17:43;22.50;99.90
16243;DHT22;11719;51.052;6.982;2023-07-16T08:20:10;22.60;99.90
16243;DHT22;11719;51.052;6.982;2023-07-16T08:22:38;22.60;99.90
16243;DHT22;11719;51.052;6.982;2023-07-16T08:25:05;22.60;99.90
16243;DHT22;11719;51.052;6.982;2023-07-16T08:27:31;22.60;99.90
16243;DHT22;11719;51.052;6.982;2023-07-16T08:29:57;22.60;99.90
16243;DHT22;11719;51.052;6.982;2023-07-16T08:32:23;22.70;99.90
16243;DHT22;11719;51.052;6.982;2023-07-16T08:34:49;22.70;99.90
16243;DHT22;11719;51.052;6.982;2023-07-16T08:37:15;22.70;99.90
16243;DHT22;11719;51.052;6.982;2023-07-16T08:39:41;22.70;99.90
16243;DHT22;11719;51.052;6.982;2023-07-16T08:42:09;22.70;99.90
16243;DHT22;11719;51.052;6.982;2023-07-16T08:44:37;22.70;99.90
16243;DHT22;11719;51.052;6.982;2023-07-16T08:47:05;22.70;99.70
16243;DHT22;11719;51.052;6.982;2023-07-16T08:49:34;22.70;99.20
16243;DHT22;11719;51.052;6.982;2023-07-16T08:52:01;22.80;99.90
16243;DHT22;11719;51.052;6.982;2023-07-16T08:54:28;22.80;99.90
16243;DHT22;11719;51.052;6.982;2023-07-16T08:56:54;22.80;99.30
16243;DHT22;11719;51.052;6.982;2023-07-16T08:59:21;22.80;99.90
16243;DHT22;11719;51.052;6.982;2023-07-16T09:01:47;22.90;99.80
16243;DHT22;11719;51.052;6.982;2023-07-16T09:04:15;22.90;99.60
16243;DHT22;11719;51.052;6.982;2023-07-16T09:06:42;22.80;99.90
16243;DHT22;11719;51.052;6.982;2023-07-16T09:09:08;22.80;99.60
16243;DHT22;11719;51.052;6.982;2023-07-16T09:11:34;22.80;99.90
16243;DHT22;11719;51.052;6.982;2023-07-16T09:14:02;22.80;99.90
16243;DHT22;11719;51.052;6.982;2023-07-16T09:16:32;22.90;98.20
16243;DHT22;11719;51.052;6.982;2023-07-16T09:19:06;22.90;98.30
16243;DHT22;11719;51.052;6.982;2023-07-16T09:21:36;22.90;99.90
16243;DHT22;11719;51.052;6.982;2023-07-16T09:24:07;23.00;99.90
16243;DHT22;11719;51.052;6.982;2023-07-16T09:26:36;23.00;99.90
16243;DHT22;11719;51.052;6.982;2023-07-16T09:29:06;23.00;99.90
16243;DHT22;11719;51.052;6.982;2023-07-16T09:31:33;23.00;99.90
16243;DHT22;11719;51.052;6.982;2023-07-16T09:33:59;23.00;99.90
16243;DHT22;11719;51.052;6.982;2023-07-16T09:36:25;23.10;99.90
16243;DHT22;11719;51.052;6.982;2023-07-16T09:38:53;23.10;99.60
16243;DHT22;11719;51.052;6.982;2023-07-16T09:41:23;23.10;99.30
16243;DHT22;11719;51.052;6.982;2023-07-16T09:43:50;23.10;99.50
16243;DHT22;11719;51.052;6.982;2023-07-16T09:46:15;23.20;99.90
16243;DHT22;11719;51.052;6.982;2023-07-16T09:48:41;23.20;99.00
16243;DHT22;11719;51.052;6.982;2023-07-16T09:51:10;23.10;99.20
16243;DHT22;11719;51.052;6.982;2023-07-16T09:53:40;23.10;99.80
16243;DHT22;11719;51.052;6.982;2023-07-16T09:56:10;23.20;99.00
16243;DHT22;11719;51.052;6.982;2023-07-16T09:58:38;23.20;99.80
16243;DHT22;11719;51.052;6.982;2023-07-16T10:01:04;23.20;98.40
16243;DHT22;11719;51.052;6.982;2023-07-16T10:03:30;23.30;98.30
16243;DHT22;11719;51.052;6.982;2023-07-16T10:06:08;23.20;99.90
16243;DHT22;11719;51.052;6.982;2023-07-16T10:08:35;23.20;97.90
16243;DHT22;11719;51.052;6.982;2023-07-16T10:11:00;23.20;99.90
16243;DHT22;11719;51.052;6.982;2023-07-16T10:13:26;23.30;98.30
16243;DHT22;11719;51.052;6.982;2023-07-16T10:15:57;23.30;99.90
16243;DHT22;11719;51.052;6.982;2023-07-16T10:18:28;23.30;97.50
16243;DHT22;11719;51.052;6.982;2023-07-16T10:21:07;23.30;97.50
16243;DHT22;11719;51.052;6.982;2023-07-16T10:23:57;23.30;99.10
16243;DHT22;11719;51.052;6.982;2023-07-16T10:26:29;23.40;97.50
16243;DHT22;11719;51.052;6.982;2023-07-16T10:28:55;23.30;99.20
16243;DHT22;11719;51.052;6.982;2023-07-16T10:31:23;23.30;98.20
16243;DHT22;11719;51.052;6.982;2023-07-16T10:34:03;23.40;99.40
16243;DHT22;11719;51.052;6.982;2023-07-16T10:36:42;23.40;99.40
16243;DHT22;11719;51.052;6.982;2023-07-16T10:39:08;23.40;97.80
16243;DHT22;11719;51.052;6.982;2023-07-16T10:41:34;23.40;99.80
16243;DHT22;11719;51.052;6.982;2023-07-16T10:44:00;23.40;99.30
16243;DHT22;11719;51.052;6.982;2023-07-16T10:46:27;23.50;97.60
16243;DHT22;11719;51.052;6.982;2023-07-16T10:48:52;23.50;99.20
16243;DHT22;11719;51.052;6.982;2023-07-16T10:51:25;23.50;98.90
16243;DHT22;11719;51.052;6.982;2023-07-16T10:53:54;23.50;98.60
16243;DHT22;11719;51.052;6.982;2023-07-16T10:56:21;23.50;99.30
16243;DHT22;11719;51.052;6.982;2023-07-16T10:58:47;23.40;99.40
16243;DHT22;11719;51.052;6.982;2023-07-16T11:01:12;23.40;99.90
16243;DHT22;11719;51.052;6.982;2023-07-16T11:03:38;23.40;99.90
16243;DHT22;11719;51.052;6.982;2023-07-16T11:06:09;23.40;99.90
16243;DHT22;11719;51.052;6.982;2023-07-16T11:08:35;23.40;99.90
16243;DHT22;11719;51.052;6.982;2023-07-16T11:11:00;23.50;99.90
16243;DHT22;11719;51.052;6.982;2023-07-16T11:13:28;23.50;97.40
16243;DHT22;11719;51.052;6.982;2023-07-16T11:15:54;23.50;97.90
16243;DHT22;11719;51.052;6.982;2023-07-16T11:18:24;23.50;99.30
16243;DHT22;11719;51.052;6.982;2023-07-16T11:20:53;23.50;98.10
16243;DHT22;11719;51.052;6.982;2023-07-16T11:23:19;23.50;97.80
16243;DHT22;11719;51.052;6.982;2023-07-16T11:25:49;23.50;99.90
16243;DHT22;11719;51.052;6.982;2023-07-16T11:28:17;23.40;97.90
16243;DHT22;11719;51.052;6.982;2023-07-16T11:30:43;23.50;98.20
16243;DHT22;11719;51.052;6.982;2023-07-16T11:33:12;23.60;96.70
16243;DHT22;11719;51.052;6.982;2023-07-16T11:35:38;23.60;97.80
16243;DHT22;11719;51.052;6.982;2023-07-16T11:38:05;23.60;97.90
16243;DHT22;11719;51.052;6.982;2023-07-16T11:40:34;23.50;98.80
16243;DHT22;11719;51.052;6.982;2023-07-16T11:43:11;23.50;99.70
16243;DHT22;11719;51.052;6.982;2023-07-16T11:45:37;23.60;98.70
16243;DHT22;11719;51.052;6.982;2023-07-16T11:48:03;23.50;98.10
16243;DHT22;11719;51.052;6.982;2023-07-16T11:50:31;23.50;97.20
16243;DHT22;11719;51.052;6.982;2023-07-16T11:53:01;23.60;96.80
16243;DHT22;11719;51.052;6.982;2023-07-16T11:55:27;23.60;98.20
16243;DHT22;11719;51.052;6.982;2023-07-16T11:57:53;23.70;96.90
16243;DHT22;11719;51.052;6.982;2023-07-16T12:00:19;23.70;97.40
16243;DHT22;11719;51.052;6.982;2023-07-16T12:02:45;23.70;97.60
16243;DHT22;11719;51.052;6.982;2023-07-16T12:05:17;23.60;98.30
16243;DHT22;11719;51.052;6.982;2023-07-16T12:07:44;23.70;96.40
16243;DHT22;11719;51.052;6.982;2023-07-16T12:10:09;23.80;97.50
16243;DHT22;11719;51.052;6.982;2023-07-16T12:12:35;23.80;98.40
16243;DHT22;11719;51.052;6.982;2023-07-16T12:15:04;23.80;97.50
16243;DHT22;11719;51.052;6.982;2023-07-16T12:17:33;23.80;96.50
16243;DHT22;11719;51.052;6.982;2023-07-16T12:19:59;23.80;98.50
16243;DHT22;11719;51.052;6.982;2023-07-16T12:22:26;23.80;97.00
16243;DHT22;11719;51.052;6.982;2023-07-16T12:24:52;23.90;96.00
16243;DHT22;11719;51.052;6.982;2023-07-16T12:27:18;24.00;96.80
16243;DHT22;11719;51.052;6.982;2023-07-16T12:29:45;23.90;97.10
16243;DHT22;11719;51.052;6.982;2023-07-16T12:32:11;23.90;98.30
16243;DHT22;11719;51.052;6.982;2023-07-16T12:34:37;24.00;97.50
16243;DHT22;11719;51.052;6.982;2023-07-16T12:37:03;24.10;96.30
16243;DHT22;11719;51.052;6.982;2023-07-16T12:39:29;24.10;97.20
16243;DHT22;11719;51.052;6.982;2023-07-16T12:41:54;24.10;95.30
16243;DHT22;11719;51.052;6.982;2023-07-16T12:44:20;24.10;97.90
16243;DHT22;11719;51.052;6.982;2023-07-16T12:46:46;24.10;96.70
16243;DHT22;11719;51.052;6.982;2023-07-16T12:49:12;24.10;95.80
16243;DHT22;11719;51.052;6.982;2023-07-16T12:51:38;24.20;95.70
16243;DHT22;11719;51.052;6.982;2023-07-16T12:54:04;24.20;96.20
16243;DHT22;11719;51.052;6.982;2023-07-16T12:56:30;24.10;96.20
16243;DHT22;11719;51.052;6.982;2023-07-16T12:58:56;24.10;96.90
16243;DHT22;11719;51.052;6.982;2023-07-16T13:01:22;24.10;95.40
16243;DHT22;11719;51.052;6.982;2023-07-16T13:03:48;24.10;97.00
16243;DHT22;11719;51.052;6.982;2023-07-16T13:06:14;24.10;95.40
16243;DHT22;11719;51.052;6.982;2023-07-16T13:08:39;24.10;95.80
16243;DHT22;11719;51.052;6.982;2023-07-16T13:11:05;24.10;95.00
16243;DHT22;11719;51.052;6.982;2023-07-16T13:13:31;24.20;94.00
16243;DHT22;11719;51.052;6.982;2023-07-16T13:15:56;24.20;96.10
16243;DHT22;11719;51.052;6.982;2023-07-16T13:18:22;24.20;95.80
16243;DHT22;11719;51.052;6.982;2023-07-16T13:20:48;24.10;96.10
16243;DHT22;11719;51.052;6.982;2023-07-16T13:23:14;24.10;95.60
16243;DHT22;11719;51.052;6.982;2023-07-16T13:25:39;24.10;94.20
16243;DHT22;11719;51.052;6.982;2023-07-16T13:28:06;24.20;94.40
16243;DHT22;11719;51.052;6.982;2023-07-16T13:30:32;24.10;95.10
16243;DHT22;11719;51.052;6.982;2023-07-16T13:32:58;24.00;95.70
16243;DHT22;11719;51.052;6.982;2023-07-16T13:35:24;24.00;95.90
16243;DHT22;11719;51.052;6.982;2023-07-16T13:37:50;24.10;94.50
16243;DHT22;11719;51.052;6.982;2023-07-16T13:40:16;24.10;95.90
16243;DHT22;11719;51.052;6.982;2023-07-16T13:42:45;24.10;95.40
16243;DHT22;11719;51.052;6.982;2023-07-16T13:45:12;24.10;96.00
16243;DHT22;11719;51.052;6.982;2023-07-16T13:47:38;24.10;94.90
16243;DHT22;11719;51.052;6.982;2023-07-16T13:50:04;24.00;96.70
16243;DHT22;11719;51.052;6.982;2023-07-16T13:52:30;23.90;96.90
16243;DHT22;11719;51.052;6.982;2023-07-16T13:54:55;23.90;96.10
16243;DHT22;11719;51.052;6.982;2023-07-16T13:57:22;23.90;94.50
16243;DHT22;11719;51.052;6.982;2023-07-16T13:59:47;24.00;95.90
16243;DHT22;11719;51.052;6.982;2023-07-16T14:02:13;24.00;96.00
16243;DHT22;11719;51.052;6.982;2023-07-16T14:04:39;24.00;94.70
16243;DHT22;11719;51.052;6.982;2023-07-16T14:07:05;24.00;96.20
16243;DHT22;11719;51.052;6.982;2023-07-16T14:09:31;24.00;94.50
16243;DHT22;11719;51.052;6.982;2023-07-16T14:11:56;24.10;95.30
16243;DHT22;11719;51.052;6.982;2023-07-16T14:14:23;24.10;94.50
16243;DHT22;11719;51.052;6.982;2023-07-16T14:16:48;24.00;96.40
16243;DHT22;11719;51.052;6.982;2023-07-16T14:19:14;24.00;95.30
16243;DHT22;11719;51.052;6.982;2023-07-16T14:21:40;23.90;95.30
16243;DHT22;11719;51.052;6.982;2023-07-16T14:24:06;23.90;94.00
16243;DHT22;11719;51.052;6.982;2023-07-16T14:26:33;24.00;95.30
16243;DHT22;11719;51.052;6.982;2023-07-16T14:28:59;24.00;94.90
16243;DHT22;11719;51.052;6.982;2023-07-16T14:31:25;24.00;94.00
16243;DHT22;11719;51.052;6.982;2023-07-16T14:33:51;23.90;94.40
16243;DHT22;11719;51.052;6.982;2023-07-16T14:36:17;23.90;96.40
16243;DHT22;11719;51.052;6.982;2023-07-16T14:38:43;24.00;95.80
16243;DHT22;11719;51.052;6.982;2023-07-16T14:41:09;23.90;94.40
16243;DHT22;11719;51.052;6.982;2023-07-16T14:43:35;24.00;96.20
16243;DHT22;11719;51.052;6.982;2023-07-16T14:46:01;23.90;96.40
16243;DHT22;11719;51.052;6.982;2023-07-16T14:48:28;23.90;93.70
16243;DHT22;11719;51.052;6.982;2023-07-16T14:50:54;24.00;96.20
16243;DHT22;11719;51.052;6.982;2023-07-16T14:53:20;24.00;95.30
16243;DHT22;11719;51.052;6.982;2023-07-16T14:55:50;24.00;96.90
16243;DHT22;11719;51.052;6.982;2023-07-16T14:58:20;23.90;95.40
16243;DHT22;11719;51.052;6.982;2023-07-16T15:00:47;24.00;96.40
16243;DHT22;11719;51.052;6.982;2023-07-16T15:03:13;23.90;96.90
16243;DHT22;11719;51.052;6.982;2023-07-16T15:05:39;23.90;96.10
16243;DHT22;11719;51.052;6.982;2023-07-16T15:08:05;23.90;94.30
16243;DHT22;11719;51.052;6.982;2023-07-16T15:10:31;23.90;96.70
16243;DHT22;11719;51.052;6.982;2023-07-16T15:12:58;23.90;95.20
16243;DHT22;11719;51.052;6.982;2023-07-16T15:15:24;23.90;95.40
16243;DHT22;11719;51.052;6.982;2023-07-16T15:17:50;24.00;94.60
16243;DHT22;11719;51.052;6.982;2023-07-16T15:20:16;23.90;93.80
16243;DHT22;11719;51.052;6.982;2023-07-16T15:22:41;24.00;94.10
16243;DHT22;11719;51.052;6.982;2023-07-16T15:25:07;24.00;94.30
16243;DHT22;11719;51.052;6.982;2023-07-16T15:27:33;24.10;94.50
16243;DHT22;11719;51.052;6.982;2023-07-16T15:29:59;24.00;96.00